createdAt,value
2022-07-31T00:01:55.119Z,20.43
2022-07-31T00:04:28.418Z,20.43
2022-07-31T00:07:00.795Z,20.46
2022-07-31T00:09:49.154Z,20.49
2022-07-31T00:12:25.161Z,20.49
2022-07-31T00:14:57.162Z,20.49
2022-07-31T00:17:29.156Z,20.51
2022-07-31T00:20:01.150Z,20.49
2022-07-31T00:22:33.435Z,20.49
2022-07-31T00:25:06.314Z,20.52
2022-07-31T00:27:39.699Z,20.50
2022-07-31T00:30:13.568Z,20.48
2022-07-31T00:32:46.147Z,20.45
2022-07-31T00:35:18.140Z,20.40
2022-07-31T00:38:02.166Z,20.37
2022-07-31T00:40:50.455Z,20.37
2022-07-31T00:43:22.429Z,20.35
2022-07-31T00:45:58.522Z,20.31
2022-07-31T00:48:31.302Z,20.25
2022-07-31T00:51:03.587Z,20.25
2022-07-31T00:53:35.618Z,20.23
2022-07-31T00:56:07.629Z,20.23
2022-07-31T00:58:39.724Z,20.20
2022-07-31T01:01:11.751Z,20.18
2022-07-31T01:03:43.983Z,20.15
2022-07-31T01:06:16.013Z,20.08
2022-07-31T01:08:49.478Z,20.05
2022-07-31T01:11:45.071Z,20.05
2022-07-31T01:14:20.592Z,20.05
2022-07-31T01:16:54.553Z,20.08
2022-07-31T01:19:42.579Z,20.09
2022-07-31T01:22:33.805Z,20.12
2022-07-31T01:25:33.203Z,20.07
2022-07-31T01:28:23.126Z,20.06
2022-07-31T01:31:26.763Z,20.08
2022-07-31T01:34:20.506Z,20.10
2022-07-31T01:37:02.019Z,20.06
2022-07-31T01:39:36.268Z,20.06
2022-07-31T01:42:12.825Z,19.90
2022-07-31T01:44:49.639Z,19.83
2022-07-31T01:47:23.462Z,19.73
2022-07-31T01:49:58.631Z,19.79
2022-07-31T01:52:33.592Z,19.76
2022-07-31T01:55:07.292Z,19.78
2022-07-31T01:57:41.787Z,19.72
2022-07-31T02:00:33.740Z,19.76
2022-07-31T02:03:09.718Z,19.74
2022-07-31T02:05:44.563Z,19.73
2022-07-31T02:08:18.785Z,19.75
2022-07-31T02:10:52.811Z,19.79
2022-07-31T02:13:26.690Z,19.79
2022-07-31T02:16:00.756Z,19.79
2022-07-31T02:18:39.888Z,19.81
2022-07-31T02:21:12.143Z,19.83
2022-07-31T02:23:44.245Z,19.79
2022-07-31T02:26:17.828Z,19.83
2022-07-31T02:28:51.233Z,19.86
2022-07-31T02:31:24.474Z,19.87
2022-07-31T02:33:56.696Z,19.89
2022-07-31T02:36:30.763Z,19.88
2022-07-31T02:39:03.922Z,19.83
2022-07-31T02:41:36.684Z,19.80
2022-07-31T02:44:12.033Z,19.78
2022-07-31T02:46:45.188Z,19.84
2022-07-31T02:49:17.717Z,19.89
2022-07-31T02:51:49.722Z,19.93
2022-07-31T02:54:21.787Z,19.96
2022-07-31T02:56:54.229Z,19.94
2022-07-31T02:59:26.309Z,19.89
2022-07-31T03:01:59.089Z,19.88
2022-07-31T03:04:31.473Z,19.88
2022-07-31T03:07:03.911Z,19.91
2022-07-31T03:09:36.527Z,19.89
2022-07-31T03:12:08.717Z,19.88
2022-07-31T03:14:40.885Z,19.84
2022-07-31T03:17:13.031Z,19.86
2022-07-31T03:19:45.475Z,19.87
2022-07-31T03:22:17.554Z,19.86
2022-07-31T03:24:49.835Z,19.87
2022-07-31T03:27:23.717Z,19.82
2022-07-31T03:29:55.705Z,19.81
2022-07-31T03:32:27.657Z,19.82
2022-07-31T03:34:59.621Z,19.78
2022-07-31T03:37:31.633Z,19.76
2022-07-31T03:40:03.950Z,19.74
2022-07-31T03:42:35.921Z,19.73
2022-07-31T03:45:10.122Z,19.78
2022-07-31T03:47:42.226Z,19.81
2022-07-31T03:50:15.362Z,19.79
2022-07-31T03:52:48.034Z,19.81
2022-07-31T03:55:20.221Z,19.77
2022-07-31T03:57:52.775Z,19.82
2022-07-31T04:00:27.534Z,19.82
2022-07-31T04:03:11.311Z,19.82
2022-07-31T04:05:43.443Z,19.82
2022-07-31T04:08:16.089Z,19.79
2022-07-31T04:10:48.411Z,19.79
2022-07-31T04:13:20.444Z,19.81
2022-07-31T04:15:52.471Z,19.87
2022-07-31T04:18:24.411Z,19.88
2022-07-31T04:20:56.378Z,19.89
2022-07-31T04:23:32.432Z,19.86
2022-07-31T04:26:05.073Z,19.89
2022-07-31T04:28:38.109Z,19.92
2022-07-31T04:31:10.106Z,19.91
2022-07-31T04:33:47.934Z,19.93
2022-07-31T04:36:29.652Z,19.96
2022-07-31T04:39:03.145Z,19.95
2022-07-31T04:41:35.132Z,19.87
2022-07-31T04:44:07.098Z,19.89
2022-07-31T04:46:44.126Z,19.91
2022-07-31T04:49:16.206Z,19.95
2022-07-31T04:51:48.574Z,20.00
2022-07-31T04:54:20.547Z,20.01
2022-07-31T04:56:52.801Z,20.06
2022-07-31T05:00:00.458Z,19.97
2022-07-31T05:02:17.628Z,19.95
2022-07-31T05:04:53.992Z,19.99
2022-07-31T05:07:29.282Z,19.82
2022-07-31T05:10:01.349Z,19.83
2022-07-31T05:12:33.319Z,19.81
2022-07-31T05:15:06.276Z,19.80
2022-07-31T05:17:38.590Z,19.78
2022-07-31T05:20:11.767Z,19.66
2022-07-31T05:22:43.869Z,19.66
2022-07-31T05:25:15.900Z,19.60
2022-07-31T05:27:50.105Z,19.63
2022-07-31T05:30:29.949Z,19.68
2022-07-31T05:33:02.645Z,19.72
2022-07-31T05:35:34.673Z,19.68
2022-07-31T05:38:06.740Z,19.73
2022-07-31T05:40:44.015Z,19.79
2022-07-31T05:43:16.098Z,19.79
2022-07-31T05:45:48.154Z,19.82
2022-07-31T05:48:20.241Z,19.95
2022-07-31T05:50:52.875Z,20.14
2022-07-31T05:53:25.193Z,20.34
2022-07-31T05:55:57.165Z,20.45
2022-07-31T05:58:29.231Z,20.56
2022-07-31T06:01:02.441Z,20.72
2022-07-31T06:03:52.027Z,20.83
2022-07-31T06:06:24.861Z,20.94
2022-07-31T06:09:00.647Z,20.86
2022-07-31T06:11:35.986Z,20.99
2022-07-31T06:14:08.409Z,21.15
2022-07-31T06:16:40.398Z,21.31
2022-07-31T06:19:12.438Z,21.30
2022-07-31T06:21:44.391Z,21.44
2022-07-31T06:24:16.390Z,21.36
2022-07-31T06:26:49.359Z,21.24
2022-07-31T06:29:23.830Z,21.34
2022-07-31T06:32:14.426Z,21.42
2022-07-31T06:34:46.449Z,21.44
2022-07-31T06:37:19.979Z,21.47
2022-07-31T06:39:56.108Z,21.32
2022-07-31T06:42:28.835Z,21.26
2022-07-31T06:45:00.875Z,21.46
2022-07-31T06:47:32.806Z,21.63
2022-07-31T06:50:06.631Z,21.63
2022-07-31T06:52:38.737Z,21.62
2022-07-31T06:55:11.535Z,21.71
2022-07-31T06:57:43.506Z,21.84
2022-07-31T07:00:20.625Z,21.96
2022-07-31T07:02:53.019Z,22.02
2022-07-31T07:05:25.164Z,22.01
2022-07-31T07:07:57.105Z,22.06
2022-07-31T07:10:29.074Z,22.07
2022-07-31T07:13:01.303Z,22.04
2022-07-31T07:15:33.347Z,22.19
2022-07-31T07:18:07.001Z,22.32
2022-07-31T07:20:39.537Z,22.38
2022-07-31T07:23:11.555Z,22.45
2022-07-31T07:25:43.659Z,22.43
2022-07-31T07:28:30.375Z,22.50
2022-07-31T07:31:04.727Z,22.52
2022-07-31T07:33:40.537Z,22.59
2022-07-31T07:36:22.484Z,22.71
2022-07-31T07:38:56.430Z,22.82
2022-07-31T07:41:28.455Z,22.80
2022-07-31T07:44:00.429Z,22.79
2022-07-31T07:46:32.442Z,22.72
2022-07-31T07:49:05.035Z,22.62
2022-07-31T07:51:37.309Z,22.51
2022-07-31T07:54:09.357Z,22.58
2022-07-31T07:56:41.464Z,22.73
2022-07-31T07:59:15.023Z,22.71
2022-07-31T08:01:48.389Z,22.88
2022-07-31T08:04:20.366Z,23.15
2022-07-31T08:06:52.738Z,23.38
2022-07-31T08:09:25.776Z,23.54
2022-07-31T08:11:57.802Z,23.64
2022-07-31T08:14:30.514Z,23.75
2022-07-31T08:17:02.579Z,23.69
2022-07-31T08:19:34.717Z,23.58
2022-07-31T08:22:07.130Z,23.77
2022-07-31T08:24:39.562Z,23.93
2022-07-31T08:27:40.282Z,23.97
2022-07-31T08:30:12.920Z,24.19
2022-07-31T08:32:44.967Z,24.32
2022-07-31T08:35:17.026Z,24.49
2022-07-31T08:37:52.074Z,24.84
2022-07-31T08:40:43.626Z,25.08
2022-07-31T08:46:08.485Z,24.95
2022-07-31T08:48:41.831Z,25.00
2022-07-31T08:51:14.279Z,25.02
2022-07-31T08:53:48.842Z,25.60
2022-07-31T08:56:21.321Z,25.74
2022-07-31T08:58:55.789Z,25.74
2022-07-31T09:01:28.311Z,25.45
2022-07-31T09:04:00.950Z,25.37
2022-07-31T09:06:32.903Z,25.17
2022-07-31T09:09:06.086Z,25.15
2022-07-31T09:11:50.611Z,25.23
2022-07-31T09:14:34.910Z,25.44
2022-07-31T09:17:15.541Z,25.62
2022-07-31T09:19:54.047Z,25.72
2022-07-31T09:22:29.867Z,25.69
2022-07-31T09:25:16.399Z,25.74
2022-07-31T09:27:48.857Z,25.60
2022-07-31T09:30:20.916Z,25.58
2022-07-31T09:32:54.068Z,25.41
2022-07-31T09:35:26.128Z,25.30
2022-07-31T09:38:00.977Z,25.43
2022-07-31T09:40:55.463Z,25.45
2022-07-31T09:43:31.372Z,25.16
2022-07-31T09:46:06.117Z,25.10
2022-07-31T09:48:38.276Z,25.35
2022-07-31T09:51:16.115Z,25.44
2022-07-31T09:53:53.348Z,25.45
2022-07-31T09:56:33.811Z,25.41
2022-07-31T09:59:08.935Z,25.39
2022-07-31T10:01:46.870Z,25.49
2022-07-31T10:04:21.052Z,25.46
2022-07-31T10:06:54.495Z,25.53
2022-07-31T10:09:27.575Z,25.66
2022-07-31T10:12:02.242Z,25.75
2022-07-31T10:14:40.596Z,25.64
2022-07-31T10:17:20.851Z,25.72
2022-07-31T10:20:05.004Z,25.86
2022-07-31T10:22:44.459Z,25.87
2022-07-31T10:25:28.185Z,25.70
2022-07-31T10:28:01.894Z,25.92
2022-07-31T10:30:33.963Z,26.27
2022-07-31T10:33:17.481Z,26.37
2022-07-31T10:36:26.159Z,26.57
2022-07-31T10:39:04.216Z,26.47
2022-07-31T10:41:56.634Z,26.31
2022-07-31T10:44:39.082Z,26.23
2022-07-31T10:47:16.269Z,26.35
2022-07-31T10:49:50.099Z,26.18
2022-07-31T10:52:31.060Z,26.17
2022-07-31T10:55:18.501Z,26.38
2022-07-31T10:57:56.771Z,26.60
2022-07-31T11:00:30.303Z,26.92
2022-07-31T11:03:18.881Z,27.26
2022-07-31T11:06:01.467Z,27.28
2022-07-31T11:08:46.602Z,27.47
2022-07-31T11:11:26.124Z,27.43
2022-07-31T11:14:00.213Z,27.87
2022-07-31T11:16:32.224Z,27.74
2022-07-31T11:19:06.775Z,27.49
2022-07-31T11:21:41.487Z,27.55
2022-07-31T11:24:23.518Z,27.48
2022-07-31T11:26:58.315Z,28.19
2022-07-31T11:30:01.084Z,28.92
2022-07-31T11:32:30.882Z,28.77
2022-07-31T11:35:02.854Z,28.36
2022-07-31T11:37:46.118Z,28.27
2022-07-31T11:40:23.738Z,28.10
2022-07-31T11:45:55.208Z,27.69
2022-07-31T11:48:35.994Z,27.60
2022-07-31T11:51:18.757Z,27.19
2022-07-31T11:53:57.426Z,26.73
2022-07-31T11:56:30.237Z,26.28
2022-07-31T11:59:02.224Z,26.46
2022-07-31T12:01:34.878Z,26.75
2022-07-31T12:04:08.988Z,26.85
2022-07-31T12:06:41.403Z,26.74
2022-07-31T12:10:02.471Z,26.60
2022-07-31T12:12:07.470Z,26.53
2022-07-31T12:14:40.201Z,26.35
2022-07-31T12:17:21.613Z,26.53
2022-07-31T12:19:57.767Z,26.66
2022-07-31T12:22:30.050Z,26.53
2022-07-31T12:25:06.140Z,26.35
2022-07-31T12:27:41.191Z,26.30
2022-07-31T12:30:17.775Z,26.07
2022-07-31T12:32:50.859Z,25.99
2022-07-31T12:35:23.057Z,25.81
2022-07-31T12:37:55.275Z,25.59
2022-07-31T12:40:29.089Z,25.40
2022-07-31T12:43:01.865Z,25.04
2022-07-31T12:45:39.845Z,24.59
2022-07-31T12:48:11.804Z,24.14
2022-07-31T12:50:43.764Z,24.00
2022-07-31T12:53:15.742Z,24.11
2022-07-31T12:55:47.714Z,24.24
2022-07-31T12:58:20.182Z,24.06
2022-07-31T13:00:54.934Z,23.91
2022-07-31T13:03:38.992Z,23.90
2022-07-31T13:06:18.481Z,23.90
2022-07-31T13:08:50.644Z,24.10
2022-07-31T13:11:25.259Z,24.36
2022-07-31T13:13:58.090Z,24.46
2022-07-31T13:16:30.320Z,24.60
2022-07-31T13:19:02.543Z,24.47
2022-07-31T13:21:42.362Z,24.41
2022-07-31T13:24:21.640Z,24.29
2022-07-31T13:26:53.683Z,24.25
2022-07-31T13:29:25.687Z,24.22
2022-07-31T13:31:57.639Z,24.20
2022-07-31T13:34:29.711Z,24.17
2022-07-31T13:37:02.070Z,24.20
2022-07-31T13:39:34.317Z,24.22
2022-07-31T13:42:06.416Z,24.16
2022-07-31T13:44:38.455Z,23.94
2022-07-31T13:47:10.438Z,23.68
2022-07-31T13:49:42.503Z,23.46
2022-07-31T13:52:14.503Z,23.37
2022-07-31T13:54:46.602Z,23.31
2022-07-31T13:57:18.591Z,23.27
2022-07-31T13:59:50.587Z,23.29
2022-07-31T14:02:22.674Z,23.31
2022-07-31T14:04:54.745Z,23.46
2022-07-31T14:07:48.191Z,23.53
2022-07-31T14:10:20.907Z,23.53
2022-07-31T14:12:53.634Z,23.69
2022-07-31T14:15:30.109Z,23.86
2022-07-31T14:18:07.828Z,23.94
2022-07-31T14:20:40.419Z,23.99
2022-07-31T14:23:12.567Z,23.98
2022-07-31T14:25:44.798Z,23.99
2022-07-31T14:28:16.888Z,24.02
2022-07-31T14:30:49.809Z,23.94
2022-07-31T14:33:21.834Z,23.84
2022-07-31T14:35:55.411Z,23.83
2022-07-31T14:38:27.914Z,23.74
2022-07-31T14:41:03.808Z,23.70
2022-07-31T14:43:36.370Z,23.52
2022-07-31T14:46:08.393Z,23.14
2022-07-31T14:48:40.371Z,22.81
2022-07-31T14:51:18.643Z,22.57
2022-07-31T14:53:52.447Z,22.44
2022-07-31T14:56:45.326Z,22.28
2022-07-31T14:59:16.409Z,22.19
2022-07-31T15:01:48.434Z,22.18
2022-07-31T15:04:20.599Z,22.14
2022-07-31T15:07:07.810Z,22.09
2022-07-31T15:09:44.936Z,22.03
2022-07-31T15:12:17.093Z,21.99
2022-07-31T15:14:49.098Z,21.87
2022-07-31T15:17:21.091Z,21.76
2022-07-31T15:19:53.114Z,21.57
2022-07-31T15:22:25.854Z,21.28
2022-07-31T15:24:57.875Z,20.98
2022-07-31T15:27:29.892Z,20.84
2022-07-31T15:30:07.059Z,20.66
2022-07-31T15:32:39.960Z,20.38
2022-07-31T15:35:13.129Z,20.25
2022-07-31T15:37:45.708Z,20.24
2022-07-31T15:40:18.267Z,20.29
2022-07-31T15:42:50.329Z,20.17
2022-07-31T15:45:22.567Z,20.10
2022-07-31T15:47:54.657Z,20.06
2022-07-31T15:50:26.709Z,20.04
2022-07-31T15:52:58.725Z,20.00
2022-07-31T15:55:30.857Z,20.00
2022-07-31T15:58:02.863Z,19.96
2022-07-31T16:00:35.005Z,19.81
2022-07-31T16:03:07.032Z,19.86
2022-07-31T16:05:39.306Z,19.87
2022-07-31T16:08:28.730Z,19.89
2022-07-31T16:11:04.328Z,19.91
2022-07-31T16:13:36.863Z,19.92
2022-07-31T16:16:11.386Z,19.84
2022-07-31T16:18:43.452Z,19.87
2022-07-31T16:21:15.711Z,19.83
2022-07-31T16:23:47.761Z,19.72
2022-07-31T16:26:20.056Z,19.53
2022-07-31T16:28:54.140Z,19.55
2022-07-31T16:31:30.682Z,19.48
2022-07-31T16:34:03.406Z,19.48
2022-07-31T16:36:35.766Z,19.45
2022-07-31T16:39:19.917Z,19.46
2022-07-31T16:41:54.842Z,19.41
2022-07-31T16:44:27.357Z,19.43
2022-07-31T16:47:00.481Z,19.45
2022-07-31T16:49:36.940Z,19.54
2022-07-31T16:52:09.223Z,19.62
2022-07-31T16:54:42.046Z,19.63
2022-07-31T16:57:15.294Z,19.64
2022-07-31T16:59:57.820Z,19.73
2022-07-31T17:02:30.229Z,19.67
2022-07-31T17:05:02.238Z,19.68
2022-07-31T17:07:34.214Z,19.74
2022-07-31T17:10:07.131Z,19.67
2022-07-31T17:12:39.161Z,19.69
2022-07-31T17:15:11.865Z,19.59
2022-07-31T17:17:44.072Z,19.63
2022-07-31T17:20:23.218Z,19.69
2022-07-31T17:22:55.319Z,19.75
2022-07-31T17:25:27.633Z,19.78
2022-07-31T17:28:00.003Z,19.85
2022-07-31T17:30:32.755Z,19.93
2022-07-31T17:33:05.078Z,19.97
2022-07-31T17:35:37.414Z,19.94
2022-07-31T17:38:09.434Z,20.03
2022-07-31T17:40:43.871Z,20.10
2022-07-31T17:43:16.441Z,20.22
2022-07-31T17:46:05.910Z,20.23
2022-07-31T17:48:41.260Z,20.26
2022-07-31T17:51:13.299Z,20.36
2022-07-31T17:53:55.330Z,20.37
2022-07-31T17:56:31.090Z,20.42
2022-07-31T17:59:06.487Z,20.36
2022-07-31T18:01:38.609Z,20.35
2022-07-31T18:04:11.095Z,20.28
2022-07-31T18:06:54.116Z,20.26
2022-07-31T18:09:28.630Z,20.27
2022-07-31T18:12:01.294Z,20.33
2022-07-31T18:14:33.549Z,20.26
2022-07-31T18:17:05.841Z,20.34
2022-07-31T18:19:37.934Z,20.35
2022-07-31T18:22:09.984Z,20.34
2022-07-31T18:24:42.103Z,20.38
2022-07-31T18:27:14.320Z,20.36
2022-07-31T18:29:54.989Z,20.38
2022-07-31T18:32:31.177Z,20.45
2022-07-31T18:35:04.434Z,20.46
2022-07-31T18:37:36.882Z,20.44
2022-07-31T18:40:09.584Z,20.47
2022-07-31T18:42:42.943Z,20.46
2022-07-31T18:45:14.986Z,20.50
2022-07-31T18:47:47.064Z,20.48
2022-07-31T18:50:59.138Z,20.47
2022-07-31T18:53:11.233Z,20.44
2022-07-31T18:55:46.133Z,20.41
2022-07-31T18:58:18.217Z,20.37
2022-07-31T19:00:54.734Z,20.39
2022-07-31T19:03:29.817Z,20.33
2022-07-31T19:06:01.804Z,20.30
2022-07-31T19:08:33.890Z,20.36
2022-07-31T19:11:05.915Z,20.39
2022-07-31T19:13:38.154Z,20.29
2022-07-31T19:16:10.186Z,20.23
2022-07-31T19:18:43.948Z,20.20
2022-07-31T19:21:22.947Z,20.17
2022-07-31T19:24:08.351Z,20.16
2022-07-31T19:26:40.334Z,20.16
2022-07-31T19:29:12.940Z,20.17
2022-07-31T19:31:49.122Z,20.11
2022-07-31T19:34:21.215Z,20.05
2022-07-31T19:36:53.504Z,20.03
2022-07-31T19:39:25.505Z,20.05
2022-07-31T19:42:11.387Z,20.04
2022-07-31T19:44:44.301Z,20.04
2022-07-31T19:47:16.318Z,20.06
2022-07-31T19:49:48.831Z,20.09
2022-07-31T19:52:21.280Z,20.13
2022-07-31T19:54:53.394Z,20.13
2022-07-31T19:57:25.412Z,20.09
2022-07-31T19:59:58.846Z,20.06
2022-07-31T20:02:30.808Z,20.07
2022-07-31T20:05:03.059Z,20.12
2022-07-31T20:07:35.190Z,20.11
2022-07-31T20:10:12.729Z,20.14
2022-07-31T20:12:44.978Z,20.10
2022-07-31T20:15:17.249Z,20.10
2022-07-31T20:17:49.421Z,20.04
2022-07-31T20:20:21.459Z,20.07
2022-07-31T20:22:53.496Z,20.07
2022-07-31T20:25:25.573Z,20.11
2022-07-31T20:27:57.571Z,20.09
2022-07-31T20:30:30.584Z,20.13
2022-07-31T20:33:02.525Z,20.20
2022-07-31T20:35:49.213Z,20.26
2022-07-31T20:38:23.263Z,20.24
2022-07-31T20:40:56.122Z,20.20
2022-07-31T20:43:30.314Z,20.17
2022-07-31T20:46:02.316Z,20.05
2022-07-31T20:48:35.162Z,19.95
2022-07-31T20:51:09.255Z,19.83
2022-07-31T20:53:41.290Z,19.73
2022-07-31T20:56:13.824Z,19.78
2022-07-31T20:58:51.148Z,19.84
2022-07-31T21:01:24.998Z,19.91
2022-07-31T21:03:57.185Z,19.98
2022-07-31T21:06:29.211Z,20.03
2022-07-31T21:09:01.167Z,20.09
2022-07-31T21:11:36.544Z,20.08
2022-07-31T21:14:08.637Z,20.10
2022-07-31T21:16:41.483Z,20.13
2022-07-31T21:19:13.571Z,20.13
2022-07-31T21:21:45.621Z,20.15
2022-07-31T21:24:18.200Z,20.17
2022-07-31T21:26:53.417Z,20.17
2022-07-31T21:29:30.242Z,20.16
2022-07-31T21:32:02.996Z,20.17
2022-07-31T21:34:37.053Z,20.17
2022-07-31T21:37:09.480Z,20.18
2022-07-31T21:39:48.722Z,20.16
2022-07-31T21:42:21.471Z,20.16
2022-07-31T21:44:56.333Z,20.14
2022-07-31T21:47:52.875Z,20.14
2022-07-31T21:50:27.866Z,20.13
2022-07-31T21:53:01.519Z,20.11
2022-07-31T21:55:33.523Z,20.09
2022-07-31T21:58:07.209Z,20.12
2022-07-31T22:00:39.500Z,20.12
2022-07-31T22:03:11.625Z,20.15
2022-07-31T22:06:02.076Z,20.14
2022-07-31T22:08:34.195Z,20.11
2022-07-31T22:11:06.312Z,20.04
2022-07-31T22:13:38.589Z,20.01
2022-07-31T22:16:10.632Z,20.02
2022-07-31T22:18:43.082Z,20.00
2022-07-31T22:21:15.926Z,20.05
2022-07-31T22:23:48.112Z,20.03
2022-07-31T22:26:20.478Z,20.00
2022-07-31T22:28:53.740Z,19.99
2022-07-31T22:31:25.970Z,19.97
2022-07-31T22:33:58.084Z,19.96
2022-07-31T22:36:30.276Z,19.91
2022-07-31T22:39:02.396Z,19.92
2022-07-31T22:41:34.416Z,19.95
2022-07-31T22:44:13.681Z,19.97
2022-07-31T22:46:48.563Z,19.97
2022-07-31T22:49:21.764Z,19.99
2022-07-31T22:51:53.786Z,19.99
2022-07-31T22:54:25.826Z,20.01
2022-07-31T22:56:57.886Z,20.02
2022-07-31T22:59:29.890Z,20.01
2022-07-31T23:02:04.266Z,20.01
2022-07-31T23:04:37.045Z,19.95
2022-07-31T23:07:09.938Z,19.92
2022-07-31T23:09:41.969Z,19.88
2022-07-31T23:12:13.927Z,19.93
2022-07-31T23:14:46.062Z,19.96
2022-07-31T23:17:22.507Z,19.94
2022-07-31T23:19:55.846Z,19.94
2022-07-31T23:22:33.920Z,19.93
2022-07-31T23:25:07.606Z,19.95
2022-07-31T23:27:39.608Z,20.00
2022-07-31T23:30:12.060Z,20.02
2022-07-31T23:32:44.047Z,19.98
2022-07-31T23:35:16.139Z,19.95
2022-07-31T23:37:48.167Z,19.94
2022-07-31T23:40:20.215Z,19.90
2022-07-31T23:42:52.246Z,19.91
2022-07-31T23:45:24.375Z,19.89
2022-07-31T23:47:58.957Z,19.92
2022-07-31T23:50:31.307Z,19.92
2022-07-31T23:53:03.327Z,19.94
2022-07-31T23:55:37.795Z,19.90
2022-07-31T23:58:14.722Z,19.91
